Time;durP1;ratioP1;P1;durP2;ratioP2;P2;SDS_P1;SDS_P2;PMS_P1;PMS_P2;Temp;Humidity;BMP_temperature;BMP_pressure;BME280_temperature;BME280_humidity;BME280_pressure;Samples;Min_cycle;Max_cycle;Signal;HPM_P1;HPM_P2
2021/10/01 00:01:36;;;;;;;3.65;1.25;;;;;;;;;;5033691;28;20202;-59
2021/10/01 00:04:03;;;;;;;2.00;1.63;;;;;;;;;;5033850;28;20264;-60
2021/10/01 00:06:31;;;;;;;7.63;1.40;;;;;;;;;;5033413;28;20249;-61
2021/10/01 00:08:58;;;;;;;4.00;1.67;;;;;;;;;;5033570;28;20226;-61
2021/10/01 00:11:25;;;;;;;2.58;1.63;;;;;;;;;;5033504;28;20260;-61
2021/10/01 00:13:54;;;;;;;4.10;1.80;;;;;;;;;;5032986;28;20764;-61
2021/10/01 00:16:21;;;;;;;3.28;2.05;;;;;;;;;;5033144;28;20740;-61
2021/10/01 00:18:49;;;;;;;3.03;1.52;;;;;;;;;;5032963;28;20226;-60
2021/10/01 00:21:16;;;;;;;3.85;1.90;;;;;;;;;;5033394;28;20202;-61
2021/10/01 00:23:43;;;;;;;2.35;1.48;;;;;;;;;;5034229;28;20716;-60
2021/10/01 00:26:10;;;;;;;4.93;2.05;;;;;;;;;;5036990;28;20206;-60
2021/10/01 00:28:38;;;;;;;2.15;1.65;;;;;;;;;;5037283;28;20295;-61
2021/10/01 00:31:06;;;;;;;3.28;1.95;;;;;;;;;;5037011;28;20253;-61
2021/10/01 00:33:33;;;;;;;4.55;1.80;;;;;;;;;;5037392;28;20224;-61
2021/10/01 00:36:01;;;;;;;5.13;1.50;;;;;;;;;;5036876;28;20674;-61
2021/10/01 00:38:29;;;;;;;7.43;1.73;;;;;;;;;;5037089;28;20234;-59
2021/10/01 00:40:56;;;;;;;2.92;1.98;;;;;;;;;;5037386;28;20297;-61
2021/10/01 00:43:23;;;;;;;5.88;1.40;;;;;;;;;;5037130;28;20203;-61
2021/10/01 00:45:50;;;;;;;3.28;1.70;;;;;;;;;;5036679;28;20670;-61
2021/10/01 00:48:19;;;;;;;2.30;1.30;;;;;;;;;;5037010;28;20223;-61
2021/10/01 00:50:47;;;;;;;2.67;1.73;;;;;;;;;;5036651;28;20260;-61
2021/10/01 00:53:14;;;;;;;2.33;1.63;;;;;;;;;;5036808;28;20222;-60
2021/10/01 00:55:41;;;;;;;1.95;1.63;;;;;;;;;;5036756;28;20198;-60
2021/10/01 00:58:09;;;;;;;2.92;1.77;;;;;;;;;;5036726;28;20638;-61
2021/10/01 01:00:42;;;;;;;4.07;1.70;;;;;;;;;;5036305;28;20211;-61
2021/10/01 01:03:09;;;;;;;2.42;1.50;;;;;;;;;;5036667;28;20191;-60
2021/10/01 01:05:44;;;;;;;4.72;2.10;;;;;;;;;;5036620;28;20206;-61
2021/10/01 01:08:11;;;;;;;2.75;1.50;;;;;;;;;;5036567;28;20225;-60
2021/10/01 01:10:43;;;;;;;3.45;1.45;;;;;;;;;;5036455;28;20199;-60
2021/10/01 01:13:14;;;;;;;5.85;1.65;;;;;;;;;;5036449;28;20618;-60
2021/10/01 01:15:45;;;;;;;3.35;1.85;;;;;;;;;;5036432;28;20746;-60
2021/10/01 01:18:13;;;;;;;2.35;1.80;;;;;;;;;;5036195;28;20787;-60
2021/10/01 01:20:46;;;;;;;4.88;1.83;;;;;;;;;;5036226;28;20264;-60
2021/10/01 01:23:21;;;;;;;1.75;1.65;;;;;;;;;;5036203;28;20638;-60
2021/10/01 01:25:55;;;;;;;3.60;1.70;;;;;;;;;;5036188;28;20283;-60
2021/10/01 01:28:31;;;;;;;2.45;1.40;;;;;;;;;;5037673;28;20218;-60
2021/10/01 01:31:02;;;;;;;3.08;1.88;;;;;;;;;;5037758;28;20240;-60
2021/10/01 01:33:32;;;;;;;3.08;1.90;;;;;;;;;;5038608;28;20226;-60
2021/10/01 01:36:00;;;;;;;3.88;1.85;;;;;;;;;;5037147;28;20191;-60
2021/10/01 01:38:28;;;;;;;4.50;1.85;;;;;;;;;;5036753;28;20234;-60
2021/10/01 01:40:57;;;;;;;2.70;1.95;;;;;;;;;;5036560;28;20249;-60
2021/10/01 01:43:25;;;;;;;2.88;1.80;;;;;;;;;;5037109;28;20709;-60
2021/10/01 01:45:52;;;;;;;4.32;2.25;;;;;;;;;;5036764;28;20202;-60
2021/10/01 01:48:20;;;;;;;1.77;1.40;;;;;;;;;;5036371;28;20713;-60
2021/10/01 01:50:50;;;;;;;1.83;1.65;;;;;;;;;;5036213;28;20670;-61
2021/10/01 01:53:19;;;;;;;2.80;1.98;;;;;;;;;;5036333;28;20256;-61
2021/10/01 01:55:46;;;;;;;3.58;2.10;;;;;;;;;;5036008;28;20704;-60
2021/10/01 01:58:14;;;;;;;4.63;2.15;;;;;;;;;;5035894;28;20226;-60
2021/10/01 02:00:42;;;;;;;2.78;2.05;;;;;;;;;;5036366;28;20260;-61
2021/10/01 02:03:09;;;;;;;1.95;1.70;;;;;;;;;;5036629;28;20202;-60
2021/10/01 02:05:37;;;;;;;4.85;1.98;;;;;;;;;;5036391;28;20252;-60
2021/10/01 02:08:06;;;;;;;3.05;2.15;;;;;;;;;;5035863;28;20222;-60
2021/10/01 02:10:35;;;;;;;2.10;1.90;;;;;;;;;;5036340;28;20205;-60
2021/10/01 02:13:04;;;;;;;2.50;1.63;;;;;;;;;;5036272;28;20229;-60
2021/10/01 02:15:32;;;;;;;2.72;1.75;;;;;;;;;;5036518;28;20202;-61
2021/10/01 02:18:01;;;;;;;5.75;1.95;;;;;;;;;;5036041;28;20234;-60
2021/10/01 02:20:29;;;;;;;3.90;1.90;;;;;;;;;;5035892;28;20206;-61
2021/10/01 02:22:57;;;;;;;3.20;2.10;;;;;;;;;;5035659;28;20670;-61
2021/10/01 02:28:14;;;;;;;7.00;2.40;;;;;;;;;;5036310;28;20240;-59
2021/10/01 02:30:42;;;;;;;4.47;1.98;;;;;;;;;;5035757;28;20186;-60
2021/10/01 02:33:12;;;;;;;3.45;1.65;;;;;;;;;;5035591;28;20206;-60
2021/10/01 02:35:40;;;;;;;2.97;2.00;;;;;;;;;;5035924;28;20206;-60
2021/10/01 02:40:36;;;;;;;2.15;1.92;;;;;;;;;;5013824;28;20643;-56
2021/10/01 02:43:04;;;;;;;4.83;1.73;;;;;;;;;;5015340;28;20207;-56
2021/10/01 02:45:31;;;;;;;4.25;2.00;;;;;;;;;;5015101;28;20437;-57
2021/10/01 02:47:58;;;;;;;3.42;1.90;;;;;;;;;;5013937;28;20355;-56
2021/10/01 02:50:25;;;;;;;1.70;1.50;;;;;;;;;;5014888;28;20714;-56
2021/10/01 02:52:55;;;;;;;4.85;2.10;;;;;;;;;;5014762;28;20207;-56
2021/10/01 02:55:24;;;;;;;3.40;1.88;;;;;;;;;;5014769;28;20617;-57
2021/10/01 02:57:56;;;;;;;2.83;1.83;;;;;;;;;;5014485;28;20207;-57
2021/10/01 03:00:24;;;;;;;2.10;1.67;;;;;;;;;;5015109;28;20270;-57
2021/10/01 03:02:53;;;;;;;1.95;1.65;;;;;;;;;;5014763;28;20207;-57
2021/10/01 03:05:21;;;;;;;2.88;1.88;;;;;;;;;;5014654;28;20199;-57
2021/10/01 03:07:48;;;;;;;3.08;1.70;;;;;;;;;;5014302;28;20203;-57
2021/10/01 03:10:16;;;;;;;4.97;1.92;;;;;;;;;;5014143;28;20645;-57
2021/10/01 03:12:45;;;;;;;3.40;2.15;;;;;;;;;;5015161;28;20202;-57
2021/10/01 03:15:14;;;;;;;5.95;2.10;;;;;;;;;;5014421;28;20219;-57
2021/10/01 03:17:43;;;;;;;3.00;1.73;;;;;;;;;;5014168;28;20246;-56
2021/10/01 03:20:11;;;;;;;3.13;1.95;;;;;;;;;;5014360;28;20265;-56
2021/10/01 03:22:40;;;;;;;4.13;1.98;;;;;;;;;;5014464;28;20207;-56
2021/10/01 03:25:08;;;;;;;4.60;1.92;;;;;;;;;;5014023;28;20736;-56
2021/10/01 03:27:36;;;;;;;3.67;1.67;;;;;;;;;;5014351;28;20202;-57
2021/10/01 03:30:05;;;;;;;7.00;1.70;;;;;;;;;;5013837;28;20710;-56
2021/10/01 03:32:33;;;;;;;2.97;1.88;;;;;;;;;;5014843;28;20214;-57
2021/10/01 03:35:02;;;;;;;3.25;2.00;;;;;;;;;;5013752;28;20219;-57
2021/10/01 03:37:29;;;;;;;2.47;1.67;;;;;;;;;;5014181;28;20203;-56
2021/10/01 03:39:57;;;;;;;3.85;1.90;;;;;;;;;;5013827;28;20231;-57
2021/10/01 03:42:25;;;;;;;2.53;1.65;;;;;;;;;;5014122;28;20207;-57
2021/10/01 03:44:53;;;;;;;2.10;1.58;;;;;;;;;;5014167;28;20603;-57
2021/10/01 03:47:20;;;;;;;3.00;2.20;;;;;;;;;;5013925;28;20207;-57
2021/10/01 03:49:49;;;;;;;4.13;1.90;;;;;;;;;;5013707;28;20222;-56
2021/10/01 03:52:17;;;;;;;3.15;1.90;;;;;;;;;;5014042;28;20595;-57
2021/10/01 03:54:47;;;;;;;3.08;1.60;;;;;;;;;;5013551;28;20214;-56
2021/10/01 03:57:14;;;;;;;4.30;2.38;;;;;;;;;;5013884;28;20203;-57
2021/10/01 03:59:41;;;;;;;7.55;2.33;;;;;;;;;;5013513;28;20230;-57
2021/10/01 04:02:09;;;;;;;5.00;2.08;;;;;;;;;;5013533;28;20207;-56
2021/10/01 04:04:36;;;;;;;6.40;2.13;;;;;;;;;;5013992;28;20199;-56
2021/10/01 04:08:38;;;;;;;5.60;2.10;;;;;;;;;;5111694;27;20551;-57
2021/10/01 04:11:06;;;;;;;5.50;2.17;;;;;;;;;;5111040;28;20203;-56
2021/10/01 04:13:33;;;;;;;2.75;1.30;;;;;;;;;;5111319;28;20574;-56
2021/10/01 04:16:00;;;;;;;2.70;2.05;;;;;;;;;;5111110;28;20249;-56
2021/10/01 04:18:27;;;;;;;3.15;1.88;;;;;;;;;;5111190;28;20261;-57
2021/10/01 04:20:55;;;;;;;2.83;1.83;;;;;;;;;;5111360;28;20232;-57
2021/10/01 04:23:22;;;;;;;2.53;1.85;;;;;;;;;;5111247;28;20206;-57
2021/10/01 04:25:51;;;;;;;4.22;1.90;;;;;;;;;;5111726;28;20211;-55
2021/10/01 04:28:18;;;;;;;5.53;1.70;;;;;;;;;;5117044;28;20220;-57
2021/10/01 04:30:48;;;;;;;2.92;1.95;;;;;;;;;;5119830;28;20283;-57
2021/10/01 04:33:20;;;;;;;3.30;1.98;;;;;;;;;;5116966;28;20552;-56
2021/10/01 04:35:47;;;;;;;2.78;1.80;;;;;;;;;;5115433;28;20207;-57
2021/10/01 04:38:15;;;;;;;2.38;2.03;;;;;;;;;;5113476;28;20249;-57
2021/10/01 04:40:42;;;;;;;5.63;1.80;;;;;;;;;;5111683;28;20264;-56
2021/10/01 04:43:11;;;;;;;4.18;2.20;;;;;;;;;;5110932;28;20253;-56
2021/10/01 04:45:38;;;;;;;3.40;1.40;;;;;;;;;;5110987;28;20200;-56
2021/10/01 04:48:06;;;;;;;3.88;2.10;;;;;;;;;;5110351;28;20256;-56
2021/10/01 04:50:34;;;;;;;2.50;1.60;;;;;;;;;;5110652;28;20200;-56
2021/10/01 04:53:01;;;;;;;2.20;1.80;;;;;;;;;;5110252;28;20203;-56
2021/10/01 04:55:29;;;;;;;3.90;2.47;;;;;;;;;;5110446;28;20204;-57
2021/10/01 04:57:56;;;;;;;5.95;2.50;;;;;;;;;;5111072;28;20196;-56
2021/10/01 05:00:25;;;;;;;3.25;1.95;;;;;;;;;;5110110;28;20258;-56
2021/10/01 05:02:52;;;;;;;3.83;1.65;;;;;;;;;;5110443;28;20200;-58
2021/10/01 05:05:19;;;;;;;1.85;1.70;;;;;;;;;;5110363;28;20256;-56
2021/10/01 05:07:47;;;;;;;3.28;1.48;;;;;;;;;;5123665;28;20219;-56
2021/10/01 05:10:14;;;;;;;4.03;1.77;;;;;;;;;;5130700;28;20255;-56
2021/10/01 05:12:42;;;;;;;3.15;1.85;;;;;;;;;;5130577;28;20662;-56
2021/10/01 05:15:10;;;;;;;2.67;1.73;;;;;;;;;;5130587;28;20245;-56
2021/10/01 05:17:40;;;;;;;4.55;1.55;;;;;;;;;;5130545;28;20232;-56
2021/10/01 05:20:09;;;;;;;5.05;2.33;;;;;;;;;;5116228;28;20626;-56
2021/10/01 05:22:36;;;;;;;4.75;2.47;;;;;;;;;;5116837;28;20206;-56
2021/10/01 05:25:04;;;;;;;3.38;2.05;;;;;;;;;;5116764;28;20567;-56
2021/10/01 05:27:32;;;;;;;2.83;1.90;;;;;;;;;;5116553;28;20239;-57
2021/10/01 05:29:59;;;;;;;4.50;1.90;;;;;;;;;;5116348;28;20219;-56
2021/10/01 05:32:27;;;;;;;5.57;2.15;;;;;;;;;;5116567;28;20253;-55
2021/10/01 05:34:55;;;;;;;9.38;2.22;;;;;;;;;;5116263;28;20245;-56
2021/10/01 05:37:23;;;;;;;9.48;2.40;;;;;;;;;;5116260;28;20667;-56
2021/10/01 05:39:50;;;;;;;5.30;2.50;;;;;;;;;;5115960;28;20249;-56
2021/10/01 05:42:17;;;;;;;4.18;2.30;;;;;;;;;;5116787;28;20241;-56
2021/10/01 05:44:44;;;;;;;4.45;1.90;;;;;;;;;;5116559;28;20735;-57
2021/10/01 05:47:12;;;;;;;2.88;1.90;;;;;;;;;;5116105;28;20265;-56
2021/10/01 05:49:40;;;;;;;3.08;1.63;;;;;;;;;;5115980;28;20219;-56
2021/10/01 05:54:55;;;;;;;4.20;2.40;;;;;;;;;;5114834;28;20207;-56
2021/10/01 05:57:22;;;;;;;7.18;1.50;;;;;;;;;;5115831;28;20210;-56
2021/10/01 05:59:50;;;;;;;2.83;1.88;;;;;;;;;;5115917;28;20223;-56
2021/10/01 06:02:17;;;;;;;4.65;1.90;;;;;;;;;;5115911;28;20223;-56
2021/10/01 06:04:45;;;;;;;4.72;2.20;;;;;;;;;;5115463;28;20671;-56
2021/10/01 06:07:14;;;;;;;3.88;1.80;;;;;;;;;;5115189;28;20273;-56
2021/10/01 06:09:42;;;;;;;3.40;2.05;;;;;;;;;;5115298;28;20224;-56
2021/10/01 06:12:09;;;;;;;4.18;1.83;;;;;;;;;;5115396;28;20780;-56
2021/10/01 06:14:37;;;;;;;4.40;2.03;;;;;;;;;;5115257;28;20667;-56
2021/10/01 06:17:04;;;;;;;2.63;1.50;;;;;;;;;;5115314;28;20206;-55
2021/10/01 06:19:33;;;;;;;2.22;1.50;;;;;;;;;;5115011;28;20223;-55
2021/10/01 06:22:01;;;;;;;4.88;1.70;;;;;;;;;;5115112;28;20199;-58
2021/10/01 06:24:30;;;;;;;2.45;1.50;;;;;;;;;;5116084;28;20203;-56
2021/10/01 06:26:57;;;;;;;2.35;1.50;;;;;;;;;;5115226;28;20269;-56
2021/10/01 06:29:25;;;;;;;3.40;1.52;;;;;;;;;;5115211;28;20223;-56
2021/10/01 06:31:52;;;;;;;2.15;1.45;;;;;;;;;;5114544;28;20265;-56
2021/10/01 06:34:19;;;;;;;3.50;1.67;;;;;;;;;;5115160;28;20222;-56
2021/10/01 06:36:47;;;;;;;2.83;1.30;;;;;;;;;;5114804;28;20441;-55
2021/10/01 06:39:14;;;;;;;5.43;1.87;;;;;;;;;;5115057;28;20272;-55
2021/10/01 06:41:43;;;;;;;4.32;1.25;;;;;;;;;;5115171;28;20441;-54
2021/10/01 06:44:12;;;;;;;1.37;1.23;;;;;;;;;;5114865;28;20225;-55
2021/10/01 06:46:44;;;;;;;4.57;1.50;;;;;;;;;;5115134;28;20813;-56
2021/10/01 06:49:22;;;;;;;3.57;1.80;;;;;;;;;;5114706;28;20853;-56
2021/10/01 07:22:42;;;;;;;6.77;1.73;;;;;;;;;;5114457;28;20394;-56
2021/10/01 08:20:42;;;;;;;3.07;1.20;;;;;;;;;;5113237;28;20385;-56
2021/10/01 08:23:09;;;;;;;5.00;1.90;;;;;;;;;;5112905;28;20945;-56
2021/10/01 08:25:36;;;;;;;2.77;1.30;;;;;;;;;;5113979;28;20441;-56
2021/10/01 08:28:04;;;;;;;1.33;1.10;;;;;;;;;;5113473;28;20477;-56
2021/10/01 08:30:31;;;;;;;2.20;1.27;;;;;;;;;;5113422;28;20469;-57
2021/10/01 08:32:58;;;;;;;2.23;1.20;;;;;;;;;;5113627;28;20450;-56
2021/10/01 08:35:26;;;;;;;3.87;1.57;;;;;;;;;;5113692;28;20498;-56
2021/10/01 08:37:55;;;;;;;2.30;1.27;;;;;;;;;;5113208;28;20495;-57
2021/10/01 08:40:23;;;;;;;3.83;1.80;;;;;;;;;;5113299;23;20854;-61
2021/10/01 08:42:55;;;;;;;3.60;1.77;;;;;;;;;;5092787;28;20500;-61
2021/10/01 08:45:23;;;;;;;4.30;2.50;;;;;;;;;;5092927;28;20507;-61
2021/10/01 08:47:51;;;;;;;4.23;1.47;;;;;;;;;;5092289;28;21055;-60
2021/10/01 08:50:20;;;;;;;2.50;1.43;;;;;;;;;;5105895;28;20526;-60
2021/10/01 08:52:47;;;;;;;3.03;1.30;;;;;;;;;;5113003;28;20453;-60
2021/10/01 08:55:16;;;;;;;6.60;3.03;;;;;;;;;;5116586;28;20445;-61
2021/10/01 08:57:44;;;;;;;2.40;1.50;;;;;;;;;;5116906;28;20494;-61
2021/10/01 09:00:13;;;;;;;2.87;1.30;;;;;;;;;;5116978;28;20521;-61
2021/10/01 09:02:41;;;;;;;5.80;1.20;;;;;;;;;;5116569;28;20453;-62
2021/10/01 09:05:08;;;;;;;2.87;1.13;;;;;;;;;;5116721;28;20441;-62
2021/10/01 09:07:35;;;;;;;5.90;1.50;;;;;;;;;;5116685;28;20441;-60
2021/10/01 09:10:04;;;;;;;3.60;1.50;;;;;;;;;;5116690;28;20522;-62
2021/10/01 09:12:32;;;;;;;3.37;2.17;;;;;;;;;;5116414;28;20449;-61
2021/10/01 09:15:00;;;;;;;4.80;1.63;;;;;;;;;;5116612;28;20851;-60
2021/10/01 09:17:29;;;;;;;3.50;1.70;;;;;;;;;;5116164;28;20536;-61
2021/10/01 09:19:58;;;;;;;2.17;1.30;;;;;;;;;;5116573;28;20465;-61
2021/10/01 09:22:26;;;;;;;3.97;1.40;;;;;;;;;;5116382;28;20441;-61
2021/10/01 09:24:53;;;;;;;1.83;1.20;;;;;;;;;;5116668;28;20441;-61
2021/10/01 09:27:34;;;;;;;3.43;1.20;;;;;;;;;;5116389;28;20510;-61
2021/10/01 09:30:02;;;;;;;4.10;1.30;;;;;;;;;;5116505;28;20453;-61
2021/10/01 09:32:30;;;;;;;2.13;1.97;;;;;;;;;;5116035;28;20442;-61
2021/10/01 09:34:57;;;;;;;2.80;1.33;;;;;;;;;;5115460;28;20498;-61
2021/10/01 09:37:26;;;;;;;2.40;1.20;;;;;;;;;;5116158;28;20441;-61
2021/10/01 09:39:54;;;;;;;3.20;1.57;;;;;;;;;;5115468;28;20548;-61
2021/10/01 09:42:22;;;;;;;3.00;1.47;;;;;;;;;;5116185;28;20441;-61
2021/10/01 09:44:50;;;;;;;3.13;1.67;;;;;;;;;;5116016;28;20438;-60
2021/10/01 09:47:20;;;;;;;3.53;1.50;;;;;;;;;;5116051;28;20441;-61
2021/10/01 09:49:47;;;;;;;2.80;1.60;;;;;;;;;;5115844;28;20554;-60
2021/10/01 09:52:14;;;;;;;3.47;1.70;;;;;;;;;;5115644;28;20929;-62
2021/10/01 09:54:42;;;;;;;4.80;1.70;;;;;;;;;;5115691;28;20464;-61
2021/10/01 09:57:10;;;;;;;2.63;1.47;;;;;;;;;;5115910;28;20536;-61
2021/10/01 09:59:38;;;;;;;3.00;1.40;;;;;;;;;;5115754;28;20457;-61
2021/10/01 10:02:07;;;;;;;5.53;1.63;;;;;;;;;;5115358;28;20441;-62
2021/10/01 10:04:36;;;;;;;4.70;1.43;;;;;;;;;;5115295;28;20438;-61
2021/10/01 10:07:10;;;;;;;3.30;1.43;;;;;;;;;;5115480;28;20501;-61
2021/10/01 10:09:39;;;;;;;3.20;1.90;;;;;;;;;;5115129;28;20476;-62
2021/10/01 10:12:07;;;;;;;2.00;1.40;;;;;;;;;;5115236;28;20446;-61
2021/10/01 10:14:35;;;;;;;4.63;1.37;;;;;;;;;;5115156;28;20441;-60
2021/10/01 10:17:02;;;;;;;6.53;2.17;;;;;;;;;;5115563;28;20502;-62
2021/10/01 10:19:33;;;;;;;3.70;1.37;;;;;;;;;;5115221;28;20523;-61
2021/10/01 10:22:02;;;;;;;3.63;1.33;;;;;;;;;;5115356;28;20467;-62
2021/10/01 10:24:29;;;;;;;4.97;1.70;;;;;;;;;;5114733;28;20467;-60
2021/10/01 10:26:58;;;;;;;2.30;1.20;;;;;;;;;;5114650;28;20437;-61
2021/10/01 10:29:26;;;;;;;2.50;1.53;;;;;;;;;;5114896;28;20478;-62
2021/10/01 10:31:53;;;;;;;2.83;1.60;;;;;;;;;;5114837;28;20532;-62
2021/10/01 10:34:23;;;;;;;3.33;1.20;;;;;;;;;;5115155;28;20491;-61
2021/10/01 10:36:51;;;;;;;4.23;1.23;;;;;;;;;;5114714;28;20482;-62
2021/10/01 10:39:37;;;;;;;2.80;1.30;;;;;;;;;;5114304;28;20526;-62
2021/10/01 10:42:11;;;;;;;1.90;1.37;;;;;;;;;;5114602;28;20762;-62
2021/10/01 10:44:49;;;;;;;3.20;1.20;;;;;;;;;;5114710;28;20482;-61
2021/10/01 10:47:31;;;;;;;2.77;1.50;;;;;;;;;;5114388;28;20501;-62
2021/10/01 10:50:27;;;;;;;2.60;1.57;;;;;;;;;;5097754;28;20557;-61
2021/10/01 10:53:13;;;;;;;8.40;5.23;;;;;;;;;;5115486;28;20783;-62
2021/10/01 10:55:44;;;;;;;8.80;4.43;;;;;;;;;;5115732;28;20803;-60
2021/10/01 10:58:27;;;;;;;5.40;2.97;;;;;;;;;;5114575;28;20422;-60
2021/10/01 11:01:00;;;;;;;3.83;1.50;;;;;;;;;;5113487;28;20483;-62
2021/10/01 11:03:28;;;;;;;2.70;1.30;;;;;;;;;;5114507;28;20422;-62
2021/10/01 11:06:22;;;;;;;2.47;1.07;;;;;;;;;;5114622;28;20791;-62
2021/10/01 11:08:50;;;;;;;1.47;1.07;;;;;;;;;;5066405;28;20502;-62
2021/10/01 11:11:38;;;;;;;9.83;7.20;;;;;;;;;;5114305;28;20449;-61
2021/10/01 11:14:33;;;;;;;42.07;31.87;;;;;;;;;;5115093;28;20465;-61
2021/10/01 11:17:21;;;;;;;28.10;20.00;;;;;;;;;;5095748;28;20445;-60
2021/10/01 11:19:57;;;;;;;10.80;5.17;;;;;;;;;;5114131;28;20797;-62
2021/10/01 11:22:38;;;;;;;2.90;1.33;;;;;;;;;;5114588;28;20425;-60
2021/10/01 11:25:10;;;;;;;2.90;1.67;;;;;;;;;;5114559;28;20480;-61
2021/10/01 11:27:47;;;;;;;2.53;1.33;;;;;;;;;;5117032;28;20825;-62
2021/10/01 11:30:14;;;;;;;2.10;1.13;;;;;;;;;;5116736;28;20492;-62
2021/10/01 11:32:43;;;;;;;2.00;1.47;;;;;;;;;;5116694;28;20446;-61
2021/10/01 11:35:10;;;;;;;2.23;1.30;;;;;;;;;;5115570;28;20441;-61
2021/10/01 11:37:39;;;;;;;1.87;0.93;;;;;;;;;;5115952;28;20480;-61
2021/10/01 11:40:08;;;;;;;2.17;1.10;;;;;;;;;;5116803;28;20531;-62
2021/10/01 11:42:36;;;;;;;3.27;1.10;;;;;;;;;;5115890;28;20494;-61
2021/10/01 11:45:09;;;;;;;3.10;0.83;;;;;;;;;;5115654;28;20855;-60
2021/10/01 11:47:37;;;;;;;3.47;1.60;;;;;;;;;;5114995;28;20483;-61
2021/10/01 11:50:06;;;;;;;2.10;0.93;;;;;;;;;;5113914;28;20485;-60
2021/10/01 11:52:42;;;;;;;1.73;1.03;;;;;;;;;;5113935;28;20506;-60
2021/10/01 11:55:09;;;;;;;2.50;1.60;;;;;;;;;;5114213;28;20898;-61
2021/10/01 11:57:37;;;;;;;3.10;1.37;;;;;;;;;;5114505;28;20659;-59
2021/10/01 12:00:06;;;;;;;1.73;0.90;;;;;;;;;;5113310;28;20454;-61
2021/10/01 12:02:35;;;;;;;2.13;1.00;;;;;;;;;;5095567;28;20498;-59
2021/10/01 12:05:20;;;;;;;2.93;1.30;;;;;;;;;;5113861;28;20438;-62
2021/10/01 12:07:47;;;;;;;3.77;1.00;;;;;;;;;;5114525;28;20898;-61
2021/10/01 12:10:15;;;;;;;2.20;1.00;;;;;;;;;;5113562;28;20486;-62
2021/10/01 12:12:57;;;;;;;1.87;0.90;;;;;;;;;;5113598;28;20502;-61
2021/10/01 12:15:34;;;;;;;2.77;1.20;;;;;;;;;;5110966;28;20521;-60
2021/10/01 12:18:01;;;;;;;1.90;0.97;;;;;;;;;;5113709;28;20429;-61
2021/10/01 12:20:30;;;;;;;1.70;1.00;;;;;;;;;;5113286;28;20965;-61
2021/10/01 12:22:57;;;;;;;2.70;0.90;;;;;;;;;;5113617;28;20527;-60
2021/10/01 12:25:26;;;;;;;2.60;0.90;;;;;;;;;;5113128;28;20986;-62
2021/10/01 12:27:54;;;;;;;1.53;0.90;;;;;;;;;;5112956;28;20560;-61
2021/10/01 12:30:21;;;;;;;3.57;1.03;;;;;;;;;;5117265;28;20484;-62
2021/10/01 12:32:49;;;;;;;2.30;1.23;;;;;;;;;;5117478;28;20442;-61
2021/10/01 12:35:16;;;;;;;2.03;1.00;;;;;;;;;;5117341;28;20449;-60
2021/10/01 12:37:44;;;;;;;1.80;1.23;;;;;;;;;;5117008;28;20956;-61
2021/10/01 12:40:14;;;;;;;3.20;1.23;;;;;;;;;;5117201;28;20488;-60
2021/10/01 12:42:42;;;;;;;2.90;1.17;;;;;;;;;;5117264;28;20450;-61
2021/10/01 12:45:11;;;;;;;2.43;1.23;;;;;;;;;;5117050;28;20445;-61
2021/10/01 12:47:40;;;;;;;3.77;1.40;;;;;;;;;;5116810;28;20937;-63
2021/10/01 12:50:08;;;;;;;2.17;0.90;;;;;;;;;;5116868;28;20489;-60
2021/10/01 12:52:36;;;;;;;2.50;0.90;;;;;;;;;;5116501;28;20445;-63
2021/10/01 12:55:07;;;;;;;4.63;1.27;;;;;;;;;;5116702;28;20990;-63
2021/10/01 12:57:35;;;;;;;5.77;1.20;;;;;;;;;;5116598;28;20909;-61
2021/10/01 13:00:11;;;;;;;1.10;0.70;;;;;;;;;;5116827;28;20461;-62
2021/10/01 13:02:39;;;;;;;2.50;0.93;;;;;;;;;;5116802;28;20497;-63
2021/10/01 13:05:08;;;;;;;6.00;0.90;;;;;;;;;;5116641;28;20453;-60
2021/10/01 13:07:37;;;;;;;5.53;2.33;;;;;;;;;;5116588;28;20453;-61
2021/10/01 13:10:19;;;;;;;1.30;0.90;;;;;;;;;;5116691;28;20541;-62
2021/10/01 13:12:50;;;;;;;3.53;1.23;;;;;;;;;;5114010;28;20493;-61
2021/10/01 13:15:20;;;;;;;2.23;0.87;;;;;;;;;;5117005;28;20421;-59
2021/10/01 13:18:00;;;;;;;4.40;1.47;;;;;;;;;;5116571;28;20433;-63
2021/10/01 13:20:27;;;;;;;3.80;1.50;;;;;;;;;;5116589;28;20510;-62
2021/10/01 13:22:57;;;;;;;2.93;1.30;;;;;;;;;;5116640;28;20438;-61
2021/10/01 13:25:25;;;;;;;3.07;1.50;;;;;;;;;;5116852;28;20468;-61
2021/10/01 13:27:54;;;;;;;4.87;1.87;;;;;;;;;;5115864;28;20991;-61
2021/10/01 13:30:21;;;;;;;3.10;1.20;;;;;;;;;;5115675;28;20607;-62
2021/10/01 13:32:49;;;;;;;2.50;1.20;;;;;;;;;;5115837;28;20441;-61
2021/10/01 13:35:17;;;;;;;1.90;1.10;;;;;;;;;;5116373;28;20449;-62
2021/10/01 13:37:45;;;;;;;2.60;1.07;;;;;;;;;;5115736;28;20941;-61
2021/10/01 13:40:12;;;;;;;2.40;1.43;;;;;;;;;;5115325;28;20473;-62
2021/10/01 13:42:40;;;;;;;1.93;1.40;;;;;;;;;;5115504;28;20471;-61
2021/10/01 13:45:09;;;;;;;3.20;2.47;;;;;;;;;;5115593;28;20438;-61
2021/10/01 13:47:37;;;;;;;3.70;1.83;;;;;;;;;;5115927;28;20449;-62
2021/10/01 13:50:06;;;;;;;3.53;1.80;;;;;;;;;;5115992;28;20469;-63
2021/10/01 13:52:33;;;;;;;1.43;1.10;;;;;;;;;;5115188;28;20533;-61
2021/10/01 13:55:00;;;;;;;3.40;1.50;;;;;;;;;;5115714;28;20514;-61
2021/10/01 13:57:29;;;;;;;5.20;3.77;;;;;;;;;;5115526;28;20445;-60
2021/10/01 13:59:56;;;;;;;4.17;2.70;;;;;;;;;;5115583;28;20484;-62
2021/10/01 14:02:24;;;;;;;2.60;1.37;;;;;;;;;;5115473;28;20495;-63
2021/10/01 14:04:52;;;;;;;2.20;1.20;;;;;;;;;;5115616;28;20445;-61
2021/10/01 14:07:19;;;;;;;2.90;1.53;;;;;;;;;;5115549;28;20515;-60
2021/10/01 14:09:46;;;;;;;5.50;1.37;;;;;;;;;;5115268;28;20581;-62
2021/10/01 14:12:15;;;;;;;2.50;2.30;;;;;;;;;;5115233;28;20441;-62
2021/10/01 14:14:43;;;;;;;4.43;1.23;;;;;;;;;;5114657;28;20453;-61
2021/10/01 14:17:10;;;;;;;2.27;1.30;;;;;;;;;;5115068;28;20532;-62
2021/10/01 14:19:39;;;;;;;1.83;1.20;;;;;;;;;;5115445;28;20566;-61
2021/10/01 14:22:06;;;;;;;2.57;1.73;;;;;;;;;;5115300;28;20581;-60
2021/10/01 14:24:37;;;;;;;2.57;1.20;;;;;;;;;;5115592;28;20437;-60
2021/10/01 14:27:04;;;;;;;2.00;1.30;;;;;;;;;;5115035;28;20849;-61
2021/10/01 14:29:31;;;;;;;3.50;1.17;;;;;;;;;;5114671;28;20480;-61
2021/10/01 14:31:59;;;;;;;3.20;1.20;;;;;;;;;;5114649;28;20502;-61
2021/10/01 14:34:26;;;;;;;3.40;1.70;;;;;;;;;;5114361;28;20452;-61
2021/10/01 14:36:55;;;;;;;2.03;1.20;;;;;;;;;;5114853;28;20450;-61
2021/10/01 14:39:23;;;;;;;4.40;1.30;;;;;;;;;;5114608;28;20482;-59
2021/10/01 14:41:50;;;;;;;2.83;2.50;;;;;;;;;;5116182;28;20506;-60
2021/10/01 14:44:17;;;;;;;2.00;1.40;;;;;;;;;;5114785;28;20434;-61
2021/10/01 14:46:44;;;;;;;2.80;1.50;;;;;;;;;;5114618;28;20931;-61
2021/10/01 14:49:12;;;;;;;3.17;1.87;;;;;;;;;;5114617;28;20462;-61
2021/10/01 14:51:39;;;;;;;2.87;1.87;;;;;;;;;;5114510;28;20437;-61
2021/10/01 14:54:08;;;;;;;1.70;1.17;;;;;;;;;;5115484;28;20474;-61
2021/10/01 14:56:35;;;;;;;2.83;1.57;;;;;;;;;;5116140;28;20806;-61
2021/10/01 14:59:02;;;;;;;2.30;1.20;;;;;;;;;;5114274;28;20449;-62
2021/10/01 15:01:29;;;;;;;2.43;1.13;;;;;;;;;;5114916;28;20437;-62
2021/10/01 15:03:57;;;;;;;2.90;1.17;;;;;;;;;;5114006;28;20862;-61
2021/10/01 15:06:24;;;;;;;2.17;1.20;;;;;;;;;;5114044;28;20486;-62
2021/10/01 15:08:51;;;;;;;2.43;1.30;;;;;;;;;;5114373;28;20449;-61
2021/10/01 15:11:20;;;;;;;2.07;1.30;;;;;;;;;;5114030;28;20538;-61
2021/10/01 15:13:48;;;;;;;2.50;1.23;;;;;;;;;;5113843;28;20441;-62
2021/10/01 15:16:15;;;;;;;2.53;1.20;;;;;;;;;;5114673;28;20445;-61
2021/10/01 15:18:42;;;;;;;3.80;1.70;;;;;;;;;;5114804;28;20471;-61
2021/10/01 15:21:10;;;;;;;3.20;1.60;;;;;;;;;;5114334;28;20465;-59
2021/10/01 15:23:37;;;;;;;1.93;1.20;;;;;;;;;;5114520;28;20855;-62
2021/10/01 15:26:04;;;;;;;3.70;1.40;;;;;;;;;;5113930;28;20446;-62
2021/10/01 15:28:33;;;;;;;4.30;1.33;;;;;;;;;;5114735;28;20453;-61
2021/10/01 15:31:00;;;;;;;2.87;1.60;;;;;;;;;;5113907;28;21037;-61
2021/10/01 15:33:27;;;;;;;4.20;1.53;;;;;;;;;;5113707;28;20524;-62
2021/10/01 15:35:55;;;;;;;2.23;1.63;;;;;;;;;;5113833;28;20452;-60
2021/10/01 15:38:23;;;;;;;2.63;1.30;;;;;;;;;;5113293;28;20999;-61
2021/10/01 15:40:51;;;;;;;6.60;1.67;;;;;;;;;;5113188;28;20485;-61
2021/10/01 15:43:18;;;;;;;5.03;1.63;;;;;;;;;;5113553;28;20506;-62
2021/10/01 15:45:49;;;;;;;2.30;1.10;;;;;;;;;;5113365;28;20445;-62
2021/10/01 15:48:16;;;;;;;3.87;1.70;;;;;;;;;;5113172;28;20455;-60
2021/10/01 15:50:43;;;;;;;2.00;1.10;;;;;;;;;;5113590;28;20485;-60
2021/10/01 15:53:11;;;;;;;3.20;1.77;;;;;;;;;;5113384;28;20913;-60
2021/10/01 15:55:39;;;;;;;7.70;1.60;;;;;;;;;;5113358;28;20445;-61
2021/10/01 15:58:08;;;;;;;3.63;2.50;;;;;;;;;;5112876;28;20445;-61
2021/10/01 16:00:38;;;;;;;3.70;1.70;;;;;;;;;;5113151;28;20500;-61
2021/10/01 16:03:08;;;;;;;2.93;1.47;;;;;;;;;;5113385;28;20436;-63
2021/10/01 16:05:36;;;;;;;3.30;1.50;;;;;;;;;;5113254;28;20536;-62
2021/10/01 16:08:03;;;;;;;2.83;1.60;;;;;;;;;;5113143;28;20441;-63
2021/10/01 16:10:32;;;;;;;3.87;2.80;;;;;;;;;;5112938;28;21058;-62
2021/10/01 16:12:59;;;;;;;3.73;2.57;;;;;;;;;;5112755;28;20540;-62
2021/10/01 16:15:27;;;;;;;4.17;1.87;;;;;;;;;;5113203;28;20453;-62
2021/10/01 16:17:54;;;;;;;2.00;1.50;;;;;;;;;;5112750;28;20470;-62
2021/10/01 16:20:27;;;;;;;3.60;1.77;;;;;;;;;;5113183;28;20461;-61
2021/10/01 16:22:54;;;;;;;4.03;2.30;;;;;;;;;;5113316;28;20426;-61
2021/10/01 16:25:23;;;;;;;2.70;1.70;;;;;;;;;;5113401;28;20445;-61
2021/10/01 16:27:50;;;;;;;5.20;2.10;;;;;;;;;;5112802;28;20444;-61
2021/10/01 16:30:18;;;;;;;4.60;2.07;;;;;;;;;;5112979;28;20481;-61